LiveATC.Net - Listen to live air traffic control over the Internet! Contact for advertising information

ICAO: KHFD  IATA: HFD   Airport: Hartford-Brainard Airport
City: Hartford   State/Province: Connecticut
Country: United States   Continent: North America
KHFD METAR Weather: KHFD 130853Z AUTO 00000KT 9SM CLR 13/12 A2964 RMK AO2 SLP038 T01280117 56020
KHFD Flight Activity (FlightAware)
KHFD Airport Info   (AirNav) (iFlightPlanner)
KHFD VFR Sectional Chart   (iFlightPlanner) 
KHFD IFR Low Chart   (iFlightPlanner) 
KHFD Tower
Feed Status: UP   Listeners: 2
Listen right in your browser - requires Flash (in browser, requires Flash)
Click here to listen with your own player (launches your MP3 player)
KHFD Tower Audio Archives
Brainard Tower119.600

Sponsored by: Premier Flight Center


Unauthorized use prohibited. See Terms of Service

Find LiveATC Audio Streams

Airport/ARTCC Code

(e.g., 124.400, 128.75)
Site-wide search

Browse LiveATC Feeds
LiveATC Coverage Map
Top 50 LiveATC Feeds
Bad Weather Areas

Offer a LiveATC Feed
Press Inquiries

LiveATC on iPhone
LiveATC on Android

Windows Phone
Windows 8/10

LiveATC Mobile
(Mobile browser)

ATC Audio Archives
Interesting Recordings

LiveATC Forums

Home Page
Make a Donation
LiveATC Bookstore

Terms of Use
Privacy Policy

ATC/Radar Sites
U.S. ARTCC Freqs
Canadian Air Freqs


FAA Airport Status
Nat'l Airspace Status
Arrival Demand Charts

Server Software By:

Please make a donation to help us keep growing!